地図

経路データ

SID SEASON NUMBER BASIN SUBBASIN NAME ISO_TIME NATURE LAT LON WMO_WIND WMO_PRES WMO_AGENCY TRACK_TYPE DIST2LAND LANDFALL IFLAG USA_AGENCY USA_ATCF_ID USA_LAT USA_LON USA_RECORD USA_STATUS USA_WIND USA_PRES USA_SSHS USA_R34_NE USA_R34_SE USA_R34_SW USA_R34_NW USA_R50_NE USA_R50_SE USA_R50_SW USA_R50_NW USA_R64_NE USA_R64_SE USA_R64_SW USA_R64_NW USA_POCI USA_ROCI USA_RMW USA_EYE TOKYO_LAT TOKYO_LON TOKYO_GRADE TOKYO_WIND TOKYO_PRES TOKYO_R50_DIR TOKYO_R50_LONG TOKYO_R50_SHORT TOKYO_R30_DIR TOKYO_R30_LONG TOKYO_R30_SHORT TOKYO_LAND CMA_LAT CMA_LON CMA_CAT CMA_WIND CMA_PRES HKO_LAT HKO_LON HKO_CAT HKO_WIND HKO_PRES NEWDELHI_LAT NEWDELHI_LON NEWDELHI_GRADE NEWDELHI_WIND NEWDELHI_PRES NEWDELHI_CI NEWDELHI_DP NEWDELHI_POCI REUNION_LAT REUNION_LON REUNION_TYPE REUNION_WIND REUNION_PRES REUNION_TNUM REUNION_CI REUNION_RMW REUNION_R34_NE REUNION_R34_SE REUNION_R34_SW REUNION_R34_NW REUNION_R50_NE REUNION_R50_SE REUNION_R50_SW REUNION_R50_NW REUNION_R64_NE REUNION_R64_SE REUNION_R64_SW REUNION_R64_NW BOM_LAT BOM_LON BOM_TYPE BOM_WIND BOM_PRES BOM_TNUM BOM_CI BOM_RMW BOM_R34_NE BOM_R34_SE BOM_R34_SW BOM_R34_NW BOM_R50_NE BOM_R50_SE BOM_R50_SW BOM_R50_NW BOM_R64_NE BOM_R64_SE BOM_R64_SW BOM_R64_NW BOM_ROCI BOM_POCI BOM_EYE BOM_POS_METHOD BOM_PRES_METHOD NADI_LAT NADI_LON NADI_CAT NADI_WIND NADI_PRES WELLINGTON_LAT WELLINGTON_LON WELLINGTON_WIND WELLINGTON_PRES DS824_LAT DS824_LON DS824_STAGE DS824_WIND DS824_PRES TD9636_LAT TD9636_LON TD9636_STAGE TD9636_WIND TD9636_PRES TD9635_LAT TD9635_LON TD9635_WIND TD9635_PRES TD9635_ROCI NEUMANN_LAT NEUMANN_LON NEUMANN_CLASS NEUMANN_WIND NEUMANN_PRES MLC_LAT MLC_LON MLC_CLASS MLC_WIND MLC_PRES USA_GUST BOM_GUST BOM_GUST_PER REUNION_GUST REUNION_GUST_PER USA_SEAHGT USA_SEARAD_NE USA_SEARAD_SE USA_SEARAD_SW USA_SEARAD_NW STORM_SPEED STORM_DIR
1913207N15136 1913 33 WP MM NOT_NAMED 1913-07-26 10:00:00 NR 14.6000 136.000 main 1167 1157 __________O___ -1 14.6000 136.000 7 2 270
1913207N15136 1913 33 WP MM NOT_NAMED 1913-07-26 12:00:00 NR 14.6000 135.928 main 1157 1146 __________P___ -1 14.6000 135.928 7 2 272
1913207N15136 1913 33 WP MM NOT_NAMED 1913-07-26 15:00:00 NR 14.6064 135.790 main 1146 1125 __________P___ -1 14.6064 135.790 7 3 275
1913207N15136 1913 33 WP MM NOT_NAMED 1913-07-26 18:00:00 NR 14.6288 135.578 main 1125 1086 __________P___ -1 14.6288 135.578 7 5 278
1913207N15136 1913 33 WP MM NOT_NAMED 1913-07-26 21:00:00 NR 14.6768 135.245 main 1086 1075 __________P___ -1 14.6768 135.245 7 7 279
1913207N15136 1913 33 WP MM NOT_NAMED 1913-07-26 22:00:00 NR 14.7000 135.100 main 1075 1044 __________O___ -1 14.7000 135.100 3 10 280
1913207N15136 1913 33 WP MM NOT_NAMED 1913-07-27 00:00:00 NR 14.7584 134.753 main 1047 977 __________P___ -1 14.7584 134.753 3 12 280
1913207N15136 1913 33 WP MM NOT_NAMED 1913-07-27 03:00:00 NR 14.8709 134.119 main 977 909 __________P___ -1 14.8709 134.119 3 13 281
1913207N15136 1913 33 WP MM NOT_NAMED 1913-07-27 06:00:00 NR 15.0045 133.398 main 909 837 __________P___ -1 15.0045 133.398 3 15 281
1913207N15136 1913 33 WP MM NOT_NAMED 1913-07-27 09:00:00 NR 15.1502 132.647 main 837 817 __________P___ -1 15.1502 132.647 3 15 281
1913207N15136 1913 33 WP MM NOT_NAMED 1913-07-27 10:00:00 NR 15.2000 132.400 main 817 773 __________O___ -1 15.2000 132.400 4 14 282
1913207N15136 1913 33 WP MM NOT_NAMED 1913-07-27 12:00:00 NR 15.2942 131.934 main 773 712 __________P___ -1 15.2942 131.934 4 14 282
1913207N15136 1913 33 WP MM NOT_NAMED 1913-07-27 15:00:00 NR 15.4419 131.235 main 712 669 __________P___ -1 15.4419 131.235 4 14 283
1913207N15136 1913 33 WP MM NOT_NAMED 1913-07-27 18:00:00 NR 15.5945 130.553 main 669 615 __________P___ -1 15.5945 130.553 4 13 283
1913207N15136 1913 33 WP MM NOT_NAMED 1913-07-27 21:00:00 NR 15.7488 129.905 main 615 606 __________P___ -1 15.7488 129.905 4 13 284
1913207N15136 1913 33 WP MM NOT_NAMED 1913-07-27 22:00:00 NR 15.8000 129.700 main 606 572 __________O___ -1 15.8000 129.700 4 12 286
1913207N15136 1913 33 WP MM NOT_NAMED 1913-07-28 00:00:00 NR 15.9044 129.323 main 572 533 __________P___ -1 15.9044 129.323 4 11 287
1913207N15136 1913 33 WP MM NOT_NAMED 1913-07-28 03:00:00 NR 16.0617 128.797 main 533 491 __________P___ -1 16.0617 128.797 4 10 287
1913207N15136 1913 33 WP MM NOT_NAMED 1913-07-28 06:00:00 NR 16.2144 128.291 main 491 453 __________P___ -1 16.2144 128.291 4 10 287
1913207N15136 1913 33 WP MM NOT_NAMED 1913-07-28 09:00:00 NR 16.3563 127.778 main 459 443 __________P___ -1 16.3563 127.778 4 10 286
1913207N15136 1913 33 WP MM NOT_NAMED 1913-07-28 10:00:00 NR 16.4000 127.600 main 443 418 __________O___ -1 16.4000 127.600 4 11 282
1913207N15136 1913 33 WP MM NOT_NAMED 1913-07-28 12:00:00 NR 16.4755 127.206 main 418 381 __________P___ -1 16.4755 127.206 4 12 280
1913207N15136 1913 33 WP MM NOT_NAMED 1913-07-28 15:00:00 NR 16.5761 126.597 main 381 349 __________P___ -1 16.5761 126.597 4 12 279
1913207N15136 1913 33 WP MM NOT_NAMED 1913-07-28 18:00:00 NR 16.6698 125.984 main 352 308 __________P___ -1 16.6698 125.984 4 12 279
1913207N15136 1913 33 WP MM NOT_NAMED 1913-07-28 21:00:00 NR 16.7658 125.390 main 308 287 __________P___ -1 16.7658 125.390 4 11 280
1913207N15136 1913 33 WP MM NOT_NAMED 1913-07-28 22:00:00 NR 16.8000 125.200 main 287 244 __________O___ -1 16.8000 125.200 4 11 282
1913207N15136 1913 33 WP MM NOT_NAMED 1913-07-29 00:00:00 NR 16.8798 124.836 main 244 191 __________P___ -1 16.8798 124.836 4 10 284
1913207N15136 1913 33 WP MM NOT_NAMED 1913-07-29 03:00:00 NR 17.0063 124.315 main 191 138 __________P___ -1 17.0063 124.315 4 10 285
1913207N15136 1913 33 WP MM NOT_NAMED 1913-07-29 06:00:00 NR 17.1353 123.821 main 138 98 __________P___ -1 17.1353 123.821 4 10 285
1913207N15136 1913 33 WP MM NOT_NAMED 1913-07-29 09:00:00 NR 17.2603 123.352 main 101 81 __________P___ -1 17.2603 123.352 4 9 286
1913207N15136 1913 33 WP MM NOT_NAMED 1913-07-29 10:00:00 NR 17.3000 123.200 main 81 54 __________O___ -1 17.3000 123.200 4 9 283
1913207N15136 1913 33 WP MM NOT_NAMED 1913-07-29 12:00:00 NR 17.3561 122.909 main 54 15 __________P___ -1 17.3561 122.909 4 8 281
1913207N15136 1913 33 WP MM NOT_NAMED 1913-07-29 15:00:00 NR 17.4339 122.493 main 15 0 __________P___ -1 17.4339 122.493 4 8 282
1913207N15136 1913 33 WP MM NOT_NAMED 1913-07-29 18:00:00 NR 17.5237 122.081 main 0 0 __________P___ -1 17.5237 122.081 4 8 285
1913207N15136 1913 33 WP MM NOT_NAMED 1913-07-29 21:00:00 NR 17.6475 121.651 main 0 0 __________P___ -1 17.6475 121.651 4 9 288
1913207N15136 1913 33 WP MM NOT_NAMED 1913-07-29 22:00:00 NR 17.7000 121.500 main 0 0 __________O___ -1 17.7000 121.500 4 10 287
1913207N15136 1913 33 WP MM NOT_NAMED 1913-07-30 00:00:00 NR 17.7935 121.149 main 0 0 __________P___ -1 17.7935 121.149 4 11 287
1913207N15136 1913 33 WP MM NOT_NAMED 1913-07-30 03:00:00 NR 17.9705 120.597 main 0 0 __________P___ -1 17.9705 120.597 4 11 292
1913207N15136 1913 33 WP MM NOT_NAMED 1913-07-30 06:00:00 NR 18.2164 120.050 main 43 54 __________P___ -1 18.2164 120.050 4 12 301
1913207N15136 1913 33 WP MM NOT_NAMED 1913-07-30 09:00:00 NR 18.5592 119.550 main 118 118 __________P___ -1 18.5592 119.550 4 12 308
1913207N15136 1913 33 WP MM NOT_NAMED 1913-07-30 10:00:00 NR 18.7000 119.400 main 130 130 __________O___ -1 18.7000 119.400 4 13 322
1913207N15136 1913 33 WP MM NOT_NAMED 1913-07-30 12:00:00 NR 19.0594 119.131 main 176 176 __________P___ -1 19.0594 119.131 4 14 330
1913207N15136 1913 33 WP MM NOT_NAMED 1913-07-30 15:00:00 NR 19.6943 118.783 main 238 238 __________P___ -1 19.6943 118.783 4 14 336
1913207N15136 1913 33 WP MM NOT_NAMED 1913-07-30 18:00:00 NR 20.3717 118.497 main 283 266 __________P___ -1 20.3717 118.497 4 14 340
1913207N15136 1913 33 WP MM NOT_NAMED 1913-07-30 21:00:00 NR 21.0100 118.266 main 266 258 __________P___ -1 21.0100 118.266 4 13 342
1913207N15136 1913 33 WP MM NOT_NAMED 1913-07-30 22:00:00 NR 21.2000 118.200 main 258 227 __________O___ -1 21.2000 118.200 4 10 340
1913207N15136 1913 33 WP MM NOT_NAMED 1913-07-31 00:00:00 NR 21.4932 118.081 main 227 182 __________P___ -1 21.4932 118.081 4 8 341
1913207N15136 1913 33 WP MM NOT_NAMED 1913-07-31 03:00:00 NR 21.8638 117.947 main 182 154 __________P___ -1 21.8638 117.947 4 7 342
1913207N15136 1913 33 WP MM NOT_NAMED 1913-07-31 06:00:00 NR 22.1847 117.843 main 154 127 __________P___ -1 22.1847 117.843 4 7 343
1913207N15136 1913 33 WP MM NOT_NAMED 1913-07-31 09:00:00 NR 22.4934 117.739 main 127 117 __________P___ -1 22.4934 117.739 4 7 343
1913207N15136 1913 33 WP MM NOT_NAMED 1913-07-31 10:00:00 NR 22.6000 117.700 main 117 89 __________O___ -1 22.6000 117.700 4 8 350
1913207N15136 1913 33 WP MM NOT_NAMED 1913-07-31 12:00:00 NR 22.8693 117.667 main 89 44 __________P___ -1 22.8693 117.667 4 8 352
1913207N15136 1913 33 WP MM NOT_NAMED 1913-07-31 15:00:00 NR 23.2801 117.608 main 44 10 __________P___ -1 23.2801 117.608 4 8 347
1913207N15136 1913 33 WP MM NOT_NAMED 1913-07-31 18:00:00 NR 23.6701 117.464 main 10 0 __________P___ -1 23.6701 117.464 4 8 330
1913207N15136 1913 33 WP MM NOT_NAMED 1913-07-31 21:00:00 NR 24.0060 117.154 main 0 0 __________P___ -1 24.0060 117.154 4 9 315
1913207N15136 1913 33 WP MM NOT_NAMED 1913-07-31 22:00:00 NR 24.1000 117.000 main 0 0 __________O___ -1 24.1000 117.000 2 12 298
1913207N15136 1913 33 WP MM NOT_NAMED 1913-08-01 00:00:00 NR 24.2756 116.589 main 0 0 __________P___ -1 24.2756 116.589 2 14 289
1913207N15136 1913 33 WP MM NOT_NAMED 1913-08-01 03:00:00 NR 24.4760 115.794 main 0 0 __________P___ -1 24.4760 115.794 2 16 281
1913207N15136 1913 33 WP MM NOT_NAMED 1913-08-01 06:00:00 NR 24.5918 114.853 main 0 0 __________P___ -1 24.5918 114.853 2 18 274
1913207N15136 1913 33 WP MM NOT_NAMED 1913-08-01 09:00:00 NR 24.6144 113.840 main 0 0 __________P___ -1 24.6144 113.840 2 18 270
1913207N15136 1913 33 WP MM NOT_NAMED 1913-08-01 10:00:00 NR 24.6000 113.500 main 0 0 __________O___ -1 24.6000 113.500 2 18 265
1913207N15136 1913 33 WP MM NOT_NAMED 1913-08-01 12:00:00 NR 24.5383 112.828 main 0 0 __________P___ -1 24.5383 112.828 2 18 262
1913207N15136 1913 33 WP MM NOT_NAMED 1913-08-01 15:00:00 NR 24.3764 111.840 main 0 0 __________P___ -1 24.3764 111.840 2 18 258
1913207N15136 1913 33 WP MM NOT_NAMED 1913-08-01 18:00:00 NR 24.1527 110.871 main 0 0 __________P___ -1 24.1527 110.871 2 18 255
1913207N15136 1913 33 WP MM NOT_NAMED 1913-08-01 21:00:00 NR 23.8914 109.917 main 0 0 __________P___ -1 23.8914 109.917 2 18 253
1913207N15136 1913 33 WP MM NOT_NAMED 1913-08-01 22:00:00 NR 23.8000 109.600 main 0 __________O___ -1 23.8000 109.600 2 18 253

デジタル台風データ・検索

IBTrACS Databaseについて

本データベースは、米国NOAAが公開する1842年以降の世界の熱帯低気圧のベストトラックデータアーカイブInternational Best Track Archive for Climate Stewardship (IBTrACS)を、ウェブで閲覧しやすい形式に変換したものです。

最終更新日:2021-10-08